Terminal Aerodrome Forecast
Issued by NWS

Home | Current Version | Previous Version | Text Only | Print | Product List | Glossary On
Versions: 1 2 3 4 5 6 7 8 9 10 11 12 13 14 15 16 17 18 19 20 21 22 23 24 25 26 27 28 29 30 31 32 33 34 35 36 37 38 39
000
FTUS45 KBOU 250106 AAA
TAFBJC
TAF AMD
KBJC 250106Z 2501/2524 16010KT P6SM SCT060 BKN120
      TEMPO 2502/2503 26010G20KT P6SM -TSRA SCT070CB OVC120
     FM250400 26007KT P6SM FEW070 BKN200
     FM250900 34005KT P6SM FEW120
     FM251800 09008KT P6SM SCT120
     FM252300 21015KT P6SM VCTS SCT080 BKN120CB=

USA.gov is the U.S. government's official web portal to all federal, state and local government web resources and services.